Time;durP1;ratioP1;P1;durP2;ratioP2;P2;SDS_P1;SDS_P2;PMS_P1;PMS_P2;Temp;Humidity;BMP_temperature;BMP_pressure;BME280_temperature;BME280_humidity;BME280_pressure;Samples;Min_cycle;Max_cycle;Signal;HPM_P1;HPM_P2
2023/07/16 00:02:20;;;;;;;;;;;;;;;25.23;58.87;100923.72;7399525;19;1259;-41
2023/07/16 00:04:49;;;;;;;;;;;;;;;25.12;59.29;100921.34;7399860;19;1130;-41
2023/07/16 00:07:17;;;;;;;;;;;;;;;25.04;59.44;100916.78;7400074;19;1899;-41
2023/07/16 00:09:46;;;;;;;;;;;;;;;25.01;59.33;100909.88;7397216;19;1844;-41
2023/07/16 00:12:17;;;;;;;;;;;;;;;25.06;59.22;100905.81;7399158;19;1422;-41
2023/07/16 00:14:45;;;;;;;;;;;;;;;25.06;59.17;100913.91;7400252;19;1205;-41
2023/07/16 00:17:13;;;;;;;;;;;;;;;25.21;59.06;100912.19;7399965;19;1934;-41
2023/07/16 00:19:42;;;;;;;;;;;;;;;24.58;59.41;100833.53;7398310;19;1384;-41
2023/07/16 00:22:10;;;;;;;;;;;;;;;25.07;59.50;100912.88;7400037;19;1188;-41
2023/07/16 00:24:38;;;;;;;;;;;;;;;24.91;59.29;100906.50;7399362;19;1271;-41
2023/07/16 00:27:07;;;;;;;;;;;;;;;24.98;59.39;100896.69;7400004;19;1499;-41
2023/07/16 00:29:40;;;;;;;;;;;;;;;25.01;59.70;100903.63;7399363;19;1869;-41
2023/07/16 00:32:08;;;;;;;;;;;;;;;25.01;59.60;100888.22;7398620;19;1368;-41
2023/07/16 00:34:36;;;;;;;;;;;;;;;25.09;58.82;100889.22;7399227;19;1249;-41
2023/07/16 00:37:05;;;;;;;;;;;;;;;25.08;59.22;100893.78;7399569;19;1252;-41
2023/07/16 00:39:33;;;;;;;;;;;;;;;25.21;59.11;100893.25;7397973;19;1640;-41
2023/07/16 00:42:02;;;;;;;;;;;;;;;25.15;59.46;100883.13;7397514;19;1877;-41
2023/07/16 00:44:30;;;;;;;;;;;;;;;25.16;58.76;100882.09;7398220;19;1335;-48
2023/07/16 00:47:01;;;;;;;;;;;;;;;25.24;58.42;100887.50;7397854;19;1325;-41
2023/07/16 00:49:30;;;;;;;;;;;;;;;25.18;59.20;100874.66;7397363;19;1846;-41
2023/07/16 00:51:59;;;;;;;;;;;;;;;25.15;58.53;100875.00;7397319;19;1152;-41
2023/07/16 00:54:28;;;;;;;;;;;;;;;25.22;58.86;100884.13;7396790;19;1546;-41
2023/07/16 00:56:57;;;;;;;;;;;;;;;25.20;58.54;100870.75;7397741;19;1271;-41
2023/07/16 00:59:25;;;;;;;;;;;;;;;25.07;58.92;100883.13;7398303;19;1860;-41
2023/07/16 01:01:53;;;;;;;;;;;;;;;25.14;58.66;100886.84;7397201;19;1495;-41
2023/07/16 01:04:24;;;;;;;;;;;;;;;25.10;58.55;100871.97;7396448;19;1221;-41
2023/07/16 01:06:54;;;;;;;;;;;;;;;25.17;58.49;100867.56;7397139;19;1252;-42
2023/07/16 01:09:23;;;;;;;;;;;;;;;25.15;58.60;100875.00;7396834;19;1239;-42
2023/07/16 01:11:52;;;;;;;;;;;;;;;25.14;58.61;100871.44;7395861;19;1841;-41
2023/07/16 01:14:20;;;;;;;;;;;;;;;25.26;57.88;100874.66;7396540;19;1312;-41
2023/07/16 01:16:49;;;;;;;;;;;;;;;25.13;58.99;100868.94;7397331;19;1554;-42
2023/07/16 01:19:17;;;;;;;;;;;;;;;25.18;57.97;100871.94;7398233;19;1279;-41
2023/07/16 01:21:54;;;;;;;;;;;;;;;25.08;59.05;100876.72;7398240;19;1281;-41
2023/07/16 01:24:36;;;;;;;;;;;;;;;24.84;58.21;100886.56;7396629;19;1538;-42
2023/07/16 01:27:19;;;;;;;;;;;;;;;24.75;58.25;100879.47;7396664;19;1582;-41
2023/07/16 01:29:52;;;;;;;;;;;;;;;24.73;58.14;100884.19;7395837;19;1846;-41
2023/07/16 01:32:20;;;;;;;;;;;;;;;24.65;58.23;100871.56;7394935;19;1411;-42
2023/07/16 01:34:49;;;;;;;;;;;;;;;24.64;58.03;100875.25;7396151;19;1511;-42
2023/07/16 01:37:17;;;;;;;;;;;;;;;24.73;57.63;100870.69;7396746;19;1554;-41
2023/07/16 01:39:46;;;;;;;;;;;;;;;24.77;58.26;100882.84;7397242;19;1222;-41
2023/07/16 01:42:15;;;;;;;;;;;;;;;24.78;58.20;100873.72;7397502;19;1887;-41
2023/07/16 01:44:43;;;;;;;;;;;;;;;24.91;57.81;100887.56;7396475;19;1502;-41
2023/07/16 01:47:16;;;;;;;;;;;;;;;24.88;58.18;100882.50;7396696;19;1619;-41
2023/07/16 01:49:42;;;;;;;;;;;;;;;24.75;58.27;100871.34;7397464;19;1649;-41
2023/07/16 01:52:11;;;;;;;;;;;;;;;24.72;57.99;100879.81;7395492;19;1853;-41
2023/07/16 01:54:39;;;;;;;;;;;;;;;25.00;57.64;100872.16;7395331;19;1479;-41
2023/07/16 01:57:07;;;;;;;;;;;;;;;25.06;57.79;100873.34;7395985;19;1428;-41
2023/07/16 01:59:36;;;;;;;;;;;;;;;24.93;58.25;100863.91;7394891;19;1974;-41
2023/07/16 02:02:04;;;;;;;;;;;;;;;24.81;58.59;100876.94;7396913;19;1030;-41
2023/07/16 02:04:35;;;;;;;;;;;;;;;24.80;58.63;100888.75;7394846;19;1817;-41
2023/07/16 02:07:03;;;;;;;;;;;;;;;24.68;58.60;100889.28;7395259;19;1197;-41
2023/07/16 02:09:32;;;;;;;;;;;;;;;24.94;58.23;100881.81;7395564;19;1629;-42
2023/07/16 02:12:00;;;;;;;;;;;;;;;25.04;57.75;100891.59;7393337;19;1857;-41
2023/07/16 02:14:29;;;;;;;;;;;;;;;24.89;58.43;100889.59;7394980;19;1468;-42
2023/07/16 02:16:57;;;;;;;;;;;;;;;24.79;58.73;100894.34;7395228;19;1189;-42
2023/07/16 02:19:26;;;;;;;;;;;;;;;24.81;58.68;100886.91;7395373;19;1211;-42
2023/07/16 02:21:57;;;;;;;;;;;;;;;24.83;58.84;100882.19;7402376;19;1605;-42
2023/07/16 02:24:25;;;;;;;;;;;;;;;24.78;58.52;100887.25;7402192;19;1213;-41
2023/07/16 02:26:54;;;;;;;;;;;;;;;24.95;58.64;100888.91;7402499;19;1218;-41
2023/07/16 02:29:22;;;;;;;;;;;;;;;24.84;59.12;100894.69;7402396;19;1468;-41
2023/07/16 02:31:50;;;;;;;;;;;;;;;24.83;58.93;100895.72;7399865;19;1841;-41
2023/07/16 02:34:18;;;;;;;;;;;;;;;24.79;58.99;100891.66;7402337;19;1201;-41
2023/07/16 02:36:46;;;;;;;;;;;;;;;24.69;59.01;100889.13;7402909;19;1193;-41
2023/07/16 02:39:17;;;;;;;;;;;;;;;24.65;59.08;100892.31;7402781;19;1495;-41
2023/07/16 02:41:46;;;;;;;;;;;;;;;24.64;58.74;100896.88;7402514;19;1578;-41
2023/07/16 02:44:14;;;;;;;;;;;;;;;24.68;58.81;100890.13;7398982;19;2027;-41
2023/07/16 02:46:44;;;;;;;;;;;;;;;24.63;59.10;100878.13;7402207;19;1269;-41
2023/07/16 02:49:12;;;;;;;;;;;;;;;24.56;58.82;100900.44;7402819;19;1096;-41
2023/07/16 02:51:40;;;;;;;;;;;;;;;24.59;58.71;100910.94;7400401;19;2063;-41
2023/07/16 02:54:08;;;;;;;;;;;;;;;24.53;58.98;100895.38;7401451;19;1212;-41
2023/07/16 02:56:39;;;;;;;;;;;;;;;24.55;58.85;100893.34;7401921;19;1180;-41
2023/07/16 02:59:08;;;;;;;;;;;;;;;24.58;58.69;100905.69;7401296;19;1542;-41
2023/07/16 03:01:36;;;;;;;;;;;;;;;24.64;58.53;100891.47;7400549;19;1323;-41
2023/07/16 03:04:04;;;;;;;;;;;;;;;24.59;59.05;100889.31;7401158;19;1299;-41
2023/07/16 03:06:32;;;;;;;;;;;;;;;24.57;58.74;100894.03;7399589;19;1619;-41
2023/07/16 03:09:01;;;;;;;;;;;;;;;24.55;59.04;100898.75;7400618;19;1507;-41
2023/07/16 03:11:29;;;;;;;;;;;;;;;24.51;58.83;100891.13;7398846;19;1842;-41
2023/07/16 03:14:00;;;;;;;;;;;;;;;24.53;58.83;100895.38;7400387;19;1167;-41
2023/07/16 03:16:28;;;;;;;;;;;;;;;24.55;58.65;100897.91;7401004;19;1173;-41
2023/07/16 03:18:56;;;;;;;;;;;;;;;24.51;58.64;100897.41;7401618;19;1069;-41
2023/07/16 03:21:25;;;;;;;;;;;;;;;24.47;58.41;100890.63;7400424;19;1207;-41
2023/07/16 03:23:53;;;;;;;;;;;;;;;24.53;58.68;100902.63;7400659;19;1498;-41
2023/07/16 03:26:21;;;;;;;;;;;;;;;24.60;58.56;100909.91;7400957;19;1243;-41
2023/07/16 03:28:50;;;;;;;;;;;;;;;24.63;58.56;100905.16;7400028;19;1503;-41
2023/07/16 03:31:20;;;;;;;;;;;;;;;24.59;58.45;100900.13;7396029;19;1872;-41
2023/07/16 03:33:49;;;;;;;;;;;;;;;24.60;58.50;100900.94;7398700;19;1531;-41
2023/07/16 03:36:17;;;;;;;;;;;;;;;24.63;58.42;100899.75;7401045;19;1475;-41
2023/07/16 03:38:45;;;;;;;;;;;;;;;24.63;58.53;100897.06;7400761;19;1445;-41
2023/07/16 03:41:14;;;;;;;;;;;;;;;24.62;58.46;100898.91;7400513;19;1168;-41
2023/07/16 03:43:42;;;;;;;;;;;;;;;24.64;58.55;100901.47;7400482;19;1124;-41
2023/07/16 03:46:10;;;;;;;;;;;;;;;24.68;58.27;100892.00;7398357;19;1205;-42
2023/07/16 03:48:41;;;;;;;;;;;;;;;24.79;58.79;100916.00;7400538;19;1160;-41
2023/07/16 03:51:09;;;;;;;;;;;;;;;24.74;58.99;100902.13;7399620;19;1849;-41
2023/07/16 03:53:38;;;;;;;;;;;;;;;24.72;58.74;100901.47;7398804;19;1496;-41
2023/07/16 03:56:06;;;;;;;;;;;;;;;24.73;58.87;100908.53;7399180;19;1539;-41
2023/07/16 03:58:34;;;;;;;;;;;;;;;24.76;59.09;100906.34;7398833;19;1221;-41
2023/07/16 04:01:02;;;;;;;;;;;;;;;24.86;58.66;100917.00;7399547;19;1495;-41
2023/07/16 04:03:31;;;;;;;;;;;;;;;24.76;58.81;100906.34;7398549;19;1839;-41
2023/07/16 04:06:09;;;;;;;;;;;;;;;24.73;58.34;100917.50;7397801;19;1207;-41
2023/07/16 04:08:37;;;;;;;;;;;;;;;24.70;58.69;100920.53;7399038;19;1164;-41
2023/07/16 04:11:06;;;;;;;;;;;;;;;24.75;58.52;100920.03;7397995;19;1853;-41
2023/07/16 04:13:34;;;;;;;;;;;;;;;24.86;58.32;100933.22;7391834;19;1396;-41
2023/07/16 04:16:03;;;;;;;;;;;;;;;24.94;58.53;100929.66;7396828;19;1441;-41
2023/07/16 04:18:31;;;;;;;;;;;;;;;24.96;58.37;100924.94;7397913;19;1281;-41
2023/07/16 04:20:59;;;;;;;;;;;;;;;24.96;58.29;100923.06;7396568;19;1182;-41
2023/07/16 04:23:30;;;;;;;;;;;;;;;24.98;57.72;100931.84;7398901;19;1562;-41
2023/07/16 04:25:58;;;;;;;;;;;;;;;24.96;58.76;100933.88;7398212;19;1189;-41
2023/07/16 04:28:27;;;;;;;;;;;;;;;25.11;58.32;100916.94;7397782;19;1327;-41
2023/07/16 04:30:55;;;;;;;;;;;;;;;24.96;57.05;100928.47;7397868;19;1845;-41
2023/07/16 04:33:23;;;;;;;;;;;;;;;24.87;57.72;100939.47;7395740;19;1261;-41
2023/07/16 04:35:51;;;;;;;;;;;;;;;24.85;57.48;100936.94;7396530;19;1209;-42
2023/07/16 04:38:20;;;;;;;;;;;;;;;24.93;57.96;100934.22;7396557;19;1488;-41
2023/07/16 04:40:50;;;;;;;;;;;;;;;25.01;57.58;100931.53;7395375;19;1208;-41
2023/07/16 04:43:19;;;;;;;;;;;;;;;25.17;57.73;100932.50;7395433;19;1543;-42
2023/07/16 04:45:47;;;;;;;;;;;;;;;25.27;57.88;100953.97;7396803;19;1135;-43
2023/07/16 04:48:15;;;;;;;;;;;;;;;25.32;58.32;100927.25;7397476;19;1232;-41
2023/07/16 04:50:44;;;;;;;;;;;;;;;25.47;58.31;100930.09;7396456;19;1432;-41
2023/07/16 04:53:12;;;;;;;;;;;;;;;25.30;58.68;100935.53;7394928;19;1846;-41
2023/07/16 04:55:41;;;;;;;;;;;;;;;25.24;59.70;100933.53;7396549;19;1514;-41
2023/07/16 04:58:12;;;;;;;;;;;;;;;25.46;58.51;100931.09;7396698;19;1558;-41
2023/07/16 05:00:40;;;;;;;;;;;;;;;25.54;58.18;100933.78;7397314;19;1164;-41
2023/07/16 05:03:08;;;;;;;;;;;;;;;25.60;58.13;100930.38;7395997;19;1231;-41
2023/07/16 05:05:37;;;;;;;;;;;;;;;25.37;59.08;100936.53;7395087;19;1307;-41
2023/07/16 05:08:05;;;;;;;;;;;;;;;25.32;59.47;100943.50;7395611;19;1442;-41
2023/07/16 05:10:34;;;;;;;;;;;;;;;25.48;59.00;100931.78;7395876;19;1483;-41
2023/07/16 05:13:03;;;;;;;;;;;;;;;25.52;59.30;100947.47;7395277;19;1853;-41
2023/07/16 05:15:34;;;;;;;;;;;;;;;25.57;58.95;100930.72;7396260;19;1127;-41
2023/07/16 05:18:02;;;;;;;;;;;;;;;25.44;59.87;100925.00;7395060;19;3266;-41
2023/07/16 05:20:31;;;;;;;;;;;;;;;25.38;59.79;100935.50;7394007;19;1341;-41
2023/07/16 05:22:59;;;;;;;;;;;;;;;25.42;60.16;100937.88;7371981;19;13926;-42
2023/07/16 05:25:27;;;;;;;;;;;;;;;25.40;60.29;100930.75;7391051;19;1633;-41
2023/07/16 05:27:55;;;;;;;;;;;;;;;25.32;60.41;100938.91;7393232;19;1474;-41
2023/07/16 05:30:24;;;;;;;;;;;;;;;25.39;60.33;100941.78;7394474;19;1173;-41
2023/07/16 05:32:54;;;;;;;;;;;;;;;25.40;60.82;100944.31;7393160;19;1817;-40
2023/07/16 05:35:23;;;;;;;;;;;;;;;25.49;60.63;100934.31;7394935;19;1135;-40
2023/07/16 05:37:51;;;;;;;;;;;;;;;25.49;60.53;100936.19;7394376;19;1283;-40
2023/07/16 05:40:19;;;;;;;;;;;;;;;25.39;61.38;100944.50;7395291;19;1076;-40
2023/07/16 05:42:48;;;;;;;;;;;;;;;25.35;61.51;100954.81;7395052;19;2200;-40
2023/07/16 05:45:16;;;;;;;;;;;;;;;25.46;61.50;100933.81;7394089;19;1498;-40
2023/07/16 05:47:44;;;;;;;;;;;;;;;25.69;60.90;100944.72;7395933;19;1452;-40
2023/07/16 05:50:15;;;;;;;;;;;;;;;25.72;61.24;100950.63;7395201;19;1266;-40
2023/07/16 05:52:43;;;;;;;;;;;;;;;25.95;60.40;100961.56;7395248;19;1845;-41
2023/07/16 05:55:12;;;;;;;;;;;;;;;25.77;61.68;100945.53;7397231;19;1293;-41
2023/07/16 05:57:40;;;;;;;;;;;;;;;25.94;60.90;100948.19;7401027;19;1224;-41
2023/07/16 06:00:10;;;;;;;;;;;;;;;26.07;60.28;100951.19;7401614;19;1316;-41
2023/07/16 06:02:38;;;;;;;;;;;;;;;26.11;60.52;100954.38;7402318;19;1443;-42
2023/07/16 06:05:07;;;;;;;;;;;;;;;26.18;60.11;100948.06;7400638;19;1190;-42
2023/07/16 06:07:37;;;;;;;;;;;;;;;26.26;59.86;100944.47;7401608;19;1288;-42
2023/07/16 06:10:06;;;;;;;;;;;;;;;26.21;60.26;100946.84;7402757;19;1222;-42
2023/07/16 06:12:35;;;;;;;;;;;;;;;26.14;60.46;100938.59;7401106;19;1872;-41
2023/07/16 06:15:03;;;;;;;;;;;;;;;26.25;60.58;100944.63;7401234;19;1647;-41
2023/07/16 06:17:31;;;;;;;;;;;;;;;26.42;60.39;100946.19;7400084;19;1291;-41
2023/07/16 06:19:59;;;;;;;;;;;;;;;26.26;60.53;100927.34;7401180;19;1312;-42
2023/07/16 06:22:28;;;;;;;;;;;;;;;26.10;61.33;100950.84;7401863;19;1251;-41
2023/07/16 06:24:59;;;;;;;;;;;;;;;26.16;62.21;100946.53;7400216;19;1458;-41
2023/07/16 06:27:27;;;;;;;;;;;;;;;26.08;61.90;100944.72;7401460;19;1252;-41
2023/07/16 06:29:56;;;;;;;;;;;;;;;26.06;63.01;100935.91;7401641;19;1633;-42
2023/07/16 06:32:24;;;;;;;;;;;;;;;26.04;63.18;100948.81;7398612;19;1845;-42
2023/07/16 06:34:52;;;;;;;;;;;;;;;26.06;63.02;100954.91;7401045;19;1831;-42
2023/07/16 06:37:23;;;;;;;;;;;;;;;25.94;63.56;100954.47;7400174;19;1348;-42
2023/07/16 06:39:51;;;;;;;;;;;;;;;25.90;63.94;100935.97;7401367;19;1397;-42
2023/07/16 06:42:22;;;;;;;;;;;;;;;25.92;64.22;100947.53;7401288;19;1267;-42
2023/07/16 06:44:50;;;;;;;;;;;;;;;25.90;64.50;100930.56;7402055;19;1180;-42
2023/07/16 06:47:19;;;;;;;;;;;;;;;25.79;65.71;100948.06;7401704;19;1216;-42
2023/07/16 06:49:47;;;;;;;;;;;;;;;25.76;65.57;100946.53;7398359;19;1288;-41
2023/07/16 06:52:21;;;;;;;;;;;;;;;25.74;66.24;100962.13;7399317;19;1859;-42
2023/07/16 06:54:49;;;;;;;;;;;;;;;25.71;66.45;100964.38;7399395;19;1390;-42
2023/07/16 06:57:17;;;;;;;;;;;;;;;25.65;66.40;100944.25;7397311;19;1395;-41
2023/07/16 06:59:48;;;;;;;;;;;;;;;25.62;67.23;100960.81;7398230;19;1357;-41
2023/07/16 07:02:18;;;;;;;;;;;;;;;25.59;67.11;100953.91;7400213;19;1153;-41
2023/07/16 07:04:46;;;;;;;;;;;;;;;25.59;67.30;100947.66;7400997;19;1266;-41
2023/07/16 07:07:14;;;;;;;;;;;;;;;25.59;67.27;100953.06;7400779;19;1600;-41
2023/07/16 07:09:43;;;;;;;;;;;;;;;25.60;67.13;100946.63;7400192;19;1522;-41
2023/07/16 07:12:11;;;;;;;;;;;;;;;25.57;67.33;100941.56;7401322;19;1849;-41
2023/07/16 07:14:39;;;;;;;;;;;;;;;25.58;67.18;100949.50;7401069;19;1466;-41
2023/07/16 07:17:10;;;;;;;;;;;;;;;25.57;67.26;100938.84;7399644;19;1344;-41
2023/07/16 07:19:39;;;;;;;;;;;;;;;25.58;66.86;100941.38;7396427;19;1724;-41
2023/07/16 07:22:07;;;;;;;;;;;;;;;25.60;66.64;100947.47;7397789;19;1055;-41
2023/07/16 07:24:35;;;;;;;;;;;;;;;25.59;67.00;100945.78;7394443;19;1467;-41
2023/07/16 07:27:04;;;;;;;;;;;;;;;25.61;66.49;100942.91;7397228;19;958;-41
2023/07/16 07:29:32;;;;;;;;;;;;;;;25.60;66.26;100942.06;7396797;19;1530;-41
2023/07/16 07:32:00;;;;;;;;;;;;;;;25.60;66.41;100935.78;7395545;19;1950;-41
2023/07/16 07:34:31;;;;;;;;;;;;;;;25.63;66.46;100940.84;7400290;19;1855;-40
2023/07/16 07:36:59;;;;;;;;;;;;;;;25.61;66.23;100934.78;7400831;19;1744;-41
2023/07/16 07:39:28;;;;;;;;;;;;;;;25.61;65.88;100937.47;7399033;19;1545;-41
2023/07/16 07:41:56;;;;;;;;;;;;;;;25.61;66.05;100937.47;7399954;19;1160;-41
2023/07/16 07:44:24;;;;;;;;;;;;;;;25.63;65.79;100929.19;7399668;19;1616;-41
2023/07/16 07:46:53;;;;;;;;;;;;;;;25.63;65.63;100929.19;7399569;19;1902;-41
2023/07/16 07:49:21;;;;;;;;;;;;;;;25.61;65.97;100913.09;7398783;19;1458;-41
2023/07/16 07:51:52;;;;;;;;;;;;;;;25.62;65.89;100922.06;7400781;19;1023;-41
2023/07/16 07:54:20;;;;;;;;;;;;;;;25.64;65.83;100928.16;7399837;19;1589;-41
2023/07/16 07:56:48;;;;;;;;;;;;;;;25.64;65.92;100930.88;7399952;19;1486;-41
2023/07/16 07:59:17;;;;;;;;;;;;;;;25.65;65.81;100930.69;7398672;19;1604;-41
2023/07/16 08:01:45;;;;;;;;;;;;;;;25.60;65.90;100933.06;7400493;19;1668;-41
2023/07/16 08:04:14;;;;;;;;;;;;;;;25.59;65.72;100918.69;7399436;19;1486;-41
2023/07/16 08:06:43;;;;;;;;;;;;;;;25.64;65.74;100931.69;7398555;19;1637;-41
2023/07/16 08:09:14;;;;;;;;;;;;;;;25.60;65.76;100925.81;7398552;19;1799;-41
2023/07/16 08:11:42;;;;;;;;;;;;;;;25.60;65.79;100930.38;7398695;19;1759;-41
2023/07/16 08:14:10;;;;;;;;;;;;;;;25.62;65.56;100922.06;7395122;19;1851;-41
2023/07/16 08:16:39;;;;;;;;;;;;;;;25.61;65.72;100932.06;7398486;19;1541;-41
2023/07/16 08:19:07;;;;;;;;;;;;;;;25.66;65.60;100929.66;7397578;19;1488;-41
2023/07/16 08:21:35;;;;;;;;;;;;;;;25.64;65.39;100914.63;7398656;19;2216;-41
2023/07/16 08:24:04;;;;;;;;;;;;;;;25.66;65.22;100920.69;7398753;19;1523;-41
2023/07/16 08:26:35;;;;;;;;;;;;;;;25.63;65.44;100916.47;7400554;19;1051;-41
2023/07/16 08:29:03;;;;;;;;;;;;;;;25.63;65.22;100915.66;7397799;19;1941;-40
2023/07/16 08:31:31;;;;;;;;;;;;;;;25.68;65.21;100922.19;7399199;19;1741;-40
2023/07/16 08:34:00;;;;;;;;;;;;;;;25.67;65.30;100912.41;7396384;19;1851;-41
2023/07/16 08:36:28;;;;;;;;;;;;;;;25.63;65.31;100926.47;7398574;19;1056;-41
2023/07/16 08:38:56;;;;;;;;;;;;;;;25.61;65.31;100913.09;7398360;19;1870;-41
2023/07/16 08:41:25;;;;;;;;;;;;;;;25.65;65.29;100928.00;7399095;19;1804;-40
2023/07/16 08:43:56;;;;;;;;;;;;;;;25.65;65.40;100928.00;7398384;19;1438;-41
2023/07/16 08:46:25;;;;;;;;;;;;;;;25.59;65.56;100915.97;7399155;19;1046;-41
2023/07/16 08:48:54;;;;;;;;;;;;;;;25.59;65.43;100915.97;7395918;19;1522;-41
2023/07/16 08:51:23;;;;;;;;;;;;;;;25.61;65.41;100923.94;7398392;19;1709;-41
2023/07/16 08:53:51;;;;;;;;;;;;;;;25.34;67.06;100923.34;7397552;19;1867;-40
2023/07/16 08:56:20;;;;;;;;;;;;;;;24.85;66.35;100923.44;7395645;19;1562;-41
2023/07/16 08:58:48;;;;;;;;;;;;;;;24.74;65.48;100919.19;7396701;19;1188;-41
2023/07/16 09:01:20;;;;;;;;;;;;;;;24.71;65.92;100918.69;7395482;19;1323;-41
2023/07/16 09:03:48;;;;;;;;;;;;;;;24.68;65.59;100921.75;7396106;19;1264;-41
2023/07/16 09:06:16;;;;;;;;;;;;;;;24.56;65.38;100916.66;7396787;19;1207;-41
2023/07/16 09:08:44;;;;;;;;;;;;;;;24.44;66.03;100919.84;7396843;19;1530;-40
2023/07/16 09:11:14;;;;;;;;;;;;;;;24.48;66.11;100924.75;7396696;19;1121;-41
2023/07/16 09:13:46;;;;;;;;;;;;;;;24.49;66.17;100917.47;7394806;19;1849;-41
2023/07/16 09:16:16;;;;;;;;;;;;;;;24.46;66.20;100910.53;7396858;19;1220;-41
2023/07/16 09:18:47;;;;;;;;;;;;;;;24.37;66.31;100908.84;7398312;19;1189;-40
2023/07/16 09:21:15;;;;;;;;;;;;;;;24.39;65.81;100910.38;7396582;19;1335;-41
2023/07/16 09:23:44;;;;;;;;;;;;;;;24.33;66.14;100905.66;7398659;19;1056;-40
2023/07/16 09:26:12;;;;;;;;;;;;;;;24.36;66.06;100931.50;7397759;19;1795;-41
2023/07/16 09:28:40;;;;;;;;;;;;;;;24.39;66.06;100904.97;7396282;19;1553;-41
2023/07/16 09:31:09;;;;;;;;;;;;;;;24.30;66.43;100910.53;7397134;19;1470;-40
2023/07/16 09:33:38;;;;;;;;;;;;;;;24.29;66.25;100909.69;7395559;19;1943;-41
2023/07/16 09:36:09;;;;;;;;;;;;;;;24.24;66.15;100900.41;7397415;19;1265;-40
2023/07/16 09:38:37;;;;;;;;;;;;;;;24.21;66.19;100912.38;7397128;19;1544;-51
2023/07/16 09:41:05;;;;;;;;;;;;;;;24.19;66.29;100915.25;7397420;19;1491;-41
2023/07/16 09:43:35;;;;;;;;;;;;;;;24.23;66.05;100904.94;7396058;19;1380;-40
2023/07/16 09:46:03;;;;;;;;;;;;;;;24.13;66.37;100906.94;7396764;19;1287;-41
2023/07/16 09:48:32;;;;;;;;;;;;;;;24.19;66.26;100898.19;7396691;19;1137;-40
2023/07/16 09:51:01;;;;;;;;;;;;;;;24.13;66.27;100899.72;7395085;19;1529;-40
2023/07/16 09:53:33;;;;;;;;;;;;;;;24.21;65.78;100905.13;7395800;19;1865;-41
2023/07/16 09:56:02;;;;;;;;;;;;;;;24.11;66.15;100896.31;7396655;19;1251;-41
2023/07/16 09:58:31;;;;;;;;;;;;;;;24.09;65.91;100903.72;7395240;19;1133;-41
2023/07/16 10:01:00;;;;;;;;;;;;;;;24.09;66.05;100892.94;7395132;19;1522;-41
2023/07/16 10:03:28;;;;;;;;;;;;;;;24.11;66.03;100901.72;7393977;19;1457;-42
2023/07/16 10:06:08;;;;;;;;;;;;;;;24.01;66.32;100901.00;7393776;19;1727;-41
2023/07/16 10:08:39;;;;;;;;;;;;;;;24.02;66.01;100889.22;7394972;19;1259;-42
2023/07/16 10:11:18;;;;;;;;;;;;;;;23.98;66.08;100879.75;7395126;19;1448;-41
2023/07/16 10:13:51;;;;;;;;;;;;;;;24.18;65.48;100883.84;7393913;19;1874;-41
2023/07/16 10:16:23;;;;;;;;;;;;;;;24.30;64.81;100883.50;7396463;19;1538;-41
2023/07/16 10:18:53;;;;;;;;;;;;;;;24.14;65.43;100895.97;7395345;19;1352;-41
2023/07/16 10:21:25;;;;;;;;;;;;;;;24.29;64.80;100893.50;7394849;19;1203;-41
2023/07/16 10:24:03;;;;;;;;;;;;;;;24.24;64.92;100893.13;7395858;19;1538;-41
2023/07/16 10:26:31;;;;;;;;;;;;;;;24.10;65.37;100877.59;7395379;19;1143;-41
2023/07/16 10:29:00;;;;;;;;;;;;;;;24.27;64.79;100881.13;7394771;19;1171;-41
2023/07/16 10:31:28;;;;;;;;;;;;;;;24.19;65.13;100873.84;7394342;19;1290;-41
2023/07/16 10:34:04;;;;;;;;;;;;;;;24.17;65.00;100878.59;7392361;19;1852;-41
2023/07/16 10:36:32;;;;;;;;;;;;;;;24.25;64.23;100875.88;7394126;19;1213;-41
2023/07/16 10:39:12;;;;;;;;;;;;;;;24.07;64.96;100881.44;7394812;19;1588;-41
2023/07/16 10:41:40;;;;;;;;;;;;;;;24.16;64.53;100872.34;7398624;19;1300;-41
2023/07/16 10:44:10;;;;;;;;;;;;;;;24.18;64.28;100864.06;7401317;19;1510;-41
2023/07/16 10:46:39;;;;;;;;;;;;;;;23.92;65.50;100870.44;7402545;19;1463;-41
2023/07/16 10:49:07;;;;;;;;;;;;;;;24.06;65.11;100860.84;7401079;19;1192;-41
2023/07/16 10:51:36;;;;;;;;;;;;;;;24.06;64.27;100854.63;7398153;19;1515;-41
2023/07/16 10:54:05;;;;;;;;;;;;;;;23.88;64.65;100868.25;6875777;19;10000701;-41
2023/07/16 10:56:39;;;;;;;;;;;;;;;23.96;64.59;100857.47;7392385;19;1470;-42
2023/07/16 10:59:07;;;;;;;;;;;;;;;24.01;64.19;100847.00;7394192;19;1442;-41
2023/07/16 11:01:36;;;;;;;;;;;;;;;23.95;64.59;100855.75;7394649;19;1485;-41
2023/07/16 11:04:04;;;;;;;;;;;;;;;24.11;63.63;100853.06;7394558;19;1439;-41
2023/07/16 11:06:32;;;;;;;;;;;;;;;24.17;63.73;100849.72;7393143;19;1455;-41
2023/07/16 11:09:08;;;;;;;;;;;;;;;24.11;63.73;100839.56;7392685;19;1409;-41
2023/07/16 11:11:40;;;;;;;;;;;;;;;24.04;63.66;100848.53;7395442;19;1307;-41
2023/07/16 11:14:09;;;;;;;;;;;;;;;23.91;64.48;100828.22;7393637;19;1853;-41
2023/07/16 11:16:37;;;;;;;;;;;;;;;24.02;63.88;100840.59;7395478;19;1732;-41
2023/07/16 11:19:07;;;;;;;;;;;;;;;24.02;64.11;100837.88;7393585;19;1539;-41
2023/07/16 11:21:36;;;;;;;;;;;;;;;23.88;64.46;100820.47;7393724;19;1103;-41
2023/07/16 11:24:11;;;;;;;;;;;;;;;24.03;64.05;100836.88;7393908;19;1188;-41
2023/07/16 11:26:42;;;;;;;;;;;;;;;24.09;63.81;100821.84;7391733;19;1458;-41
2023/07/16 11:29:17;;;;;;;;;;;;;;;24.13;63.41;100829.47;7393468;19;1544;-41
2023/07/16 11:31:46;;;;;;;;;;;;;;;23.96;63.97;100862.88;7391695;19;1575;-41
2023/07/16 11:34:15;;;;;;;;;;;;;;;23.91;64.17;100824.69;7392079;19;1849;-41
2023/07/16 11:36:43;;;;;;;;;;;;;;;23.96;63.78;100830.47;7393683;19;1452;-41
2023/07/16 11:39:13;;;;;;;;;;;;;;;23.99;63.52;100827.41;7394094;19;1533;-42
2023/07/16 11:41:44;;;;;;;;;;;;;;;24.02;63.33;100827.09;7396415;19;1584;-41
2023/07/16 11:44:13;;;;;;;;;;;;;;;24.06;63.15;100825.72;7397502;19;1329;-41
2023/07/16 11:46:42;;;;;;;;;;;;;;;24.14;62.93;100831.13;7397398;19;1282;-41
2023/07/16 11:49:10;;;;;;;;;;;;;;;24.15;62.87;100819.34;7401220;19;1498;-41
2023/07/16 11:51:38;;;;;;;;;;;;;;;24.16;62.75;100822.88;7396454;19;1795;-41
2023/07/16 11:54:06;;;;;;;;;;;;;;;24.12;62.78;100827.75;7398714;19;1859;-41
2023/07/16 11:56:35;;;;;;;;;;;;;;;24.04;62.84;100816.97;7398356;19;1224;-41
2023/07/16 11:59:06;;;;;;;;;;;;;;;24.05;62.88;100815.94;7399553;19;1379;-41
2023/07/16 12:01:34;;;;;;;;;;;;;;;24.13;62.84;100817.78;7399924;19;1847;-41
2023/07/16 12:04:02;;;;;;;;;;;;;;;24.11;62.86;100817.94;7399321;19;1470;-41
2023/07/16 12:06:31;;;;;;;;;;;;;;;24.10;62.37;100820.84;7397670;19;1851;-41
2023/07/16 12:08:59;;;;;;;;;;;;;;;24.05;62.39;100813.22;7399397;19;1399;-41
2023/07/16 12:11:27;;;;;;;;;;;;;;;24.02;62.30;100827.09;7397440;19;1549;-41
2023/07/16 12:13:55;;;;;;;;;;;;;;;24.04;61.92;100822.34;7398690;19;1845;-41
2023/07/16 12:16:26;;;;;;;;;;;;;;;23.99;62.21;100839.06;7398333;19;1972;-41
2023/07/16 12:18:55;;;;;;;;;;;;;;;24.03;61.94;100823.34;7398876;19;1550;-41
2023/07/16 12:21:23;;;;;;;;;;;;;;;23.99;61.95;100827.41;7397942;19;1569;-41
2023/07/16 12:23:51;;;;;;;;;;;;;;;23.89;62.52;100827.56;7400125;19;1108;-41
2023/07/16 12:26:19;;;;;;;;;;;;;;;23.75;63.07;100826.31;7399855;19;1391;-41
2023/07/16 12:28:48;;;;;;;;;;;;;;;23.78;62.71;100815.22;7398385;19;1530;-42
2023/07/16 12:31:16;;;;;;;;;;;;;;;23.76;62.31;100814.53;7396718;19;1482;-42
2023/07/16 12:33:47;;;;;;;;;;;;;;;23.85;62.00;100828.06;7397524;19;1849;-41
2023/07/16 12:36:16;;;;;;;;;;;;;;;23.86;62.01;100813.56;7399545;19;1553;-41
2023/07/16 12:38:44;;;;;;;;;;;;;;;23.91;61.59;100809.31;7399442;19;1242;-41
2023/07/16 12:41:14;;;;;;;;;;;;;;;23.87;62.00;100804.44;7399607;19;1064;-41
2023/07/16 12:43:43;;;;;;;;;;;;;;;23.89;61.81;100805.13;7397452;19;1566;-42
2023/07/16 12:46:11;;;;;;;;;;;;;;;23.95;61.63;100826.06;7396481;19;1483;-42
2023/07/16 12:48:39;;;;;;;;;;;;;;;23.92;61.47;100810.19;7397718;19;1819;-41
2023/07/16 12:51:10;;;;;;;;;;;;;;;23.90;61.41;100804.13;7398542;19;1712;-41
2023/07/16 12:53:39;;;;;;;;;;;;;;;23.91;61.45;100797.69;7398719;19;1855;-41
2023/07/16 12:56:08;;;;;;;;;;;;;;;23.88;61.55;100803.44;7396481;19;1963;-41